createdAt,value
2017-02-26T00:00:11.817Z,1010.39
2017-02-26T00:01:22.390Z,1010.33
2017-02-26T00:02:33.033Z,1010.36
2017-02-26T00:03:43.296Z,1010.34
2017-02-26T00:04:53.571Z,1010.35
2017-02-26T00:06:03.839Z,1010.38
2017-02-26T00:07:14.859Z,1010.33
2017-02-26T00:08:25.138Z,1010.35
2017-02-26T00:09:35.834Z,1010.35
2017-02-26T00:10:46.127Z,1010.34
2017-02-26T00:11:57.069Z,1010.34
2017-02-26T00:13:07.832Z,1010.31
2017-02-26T00:14:18.505Z,1010.33
2017-02-26T00:15:28.789Z,1010.34
2017-02-26T00:16:39.460Z,1010.33
2017-02-26T00:17:48.966Z,1010.31
2017-02-26T00:18:59.679Z,1010.28
2017-02-26T00:20:09.947Z,1010.25
2017-02-26T00:21:19.813Z,1010.22
2017-02-26T00:22:30.486Z,1010.27
2017-02-26T00:23:41.148Z,1010.17
2017-02-26T00:24:52.057Z,1010.17
2017-02-26T00:26:02.702Z,1010.17
2017-02-26T00:27:12.966Z,1010.21
2017-02-26T00:28:23.228Z,1010.15
2017-02-26T00:29:33.883Z,1010.19
2017-02-26T00:30:43.870Z,1010.18
2017-02-26T00:31:54.546Z,1010.2
2017-02-26T00:33:04.029Z,1010.2
2017-02-26T00:34:14.297Z,1010.17
2017-02-26T00:35:24.984Z,1010.21
2017-02-26T00:36:35.755Z,1010.18
2017-02-26T00:37:46.012Z,1010.21
2017-02-26T00:38:56.680Z,1010.22
2017-02-26T00:40:07.342Z,1010.19
2017-02-26T00:41:16.455Z,1010.18
2017-02-26T00:42:27.218Z,1010.17
2017-02-26T00:43:37.483Z,1010.2
2017-02-26T00:44:48.164Z,1010.13
2017-02-26T00:45:58.432Z,1010.13
2017-02-26T00:47:08.694Z,1010.14
2017-02-26T00:48:18.723Z,1010.11
2017-02-26T00:49:29.376Z,1010.04
2017-02-26T00:50:39.646Z,1010.06
2017-02-26T00:51:49.913Z,1010.07
2017-02-26T00:53:00.572Z,1010.03
2017-02-26T00:54:11.148Z,1010.07
2017-02-26T00:55:21.430Z,1010.09
2017-02-26T00:56:31.322Z,1010.04
2017-02-26T00:57:41.200Z,1010.04
2017-02-26T00:58:51.478Z,1010.05
2017-02-26T01:00:02.377Z,1010.04
2017-02-26T01:01:12.636Z,1010.04
2017-02-26T01:02:22.926Z,1010.08
2017-02-26T01:03:33.610Z,1010.05
2017-02-26T01:04:43.923Z,1010.03
2017-02-26T01:05:54.926Z,1010.01
2017-02-26T01:07:04.796Z,1010.07
2017-02-26T01:08:15.056Z,1010.03
2017-02-26T01:09:25.728Z,1010.04
2017-02-26T01:10:35.602Z,1009.99
2017-02-26T01:11:45.358Z,1009.98
2017-02-26T01:12:55.649Z,1009.97
2017-02-26T01:14:05.914Z,1009.94
2017-02-26T01:15:15.794Z,1009.98
2017-02-26T01:16:26.454Z,1009.95
2017-02-26T01:17:36.883Z,1009.99
2017-02-26T01:18:47.544Z,1009.95
2017-02-26T01:19:58.204Z,1009.95
2017-02-26T01:21:08.861Z,1009.95
2017-02-26T01:22:19.140Z,1009.94
2017-02-26T01:23:29.549Z,1009.93
2017-02-26T01:24:39.436Z,1009.95
2017-02-26T01:25:50.079Z,1009.91
2017-02-26T01:27:00.647Z,1009.9
2017-02-26T01:28:10.924Z,1009.85
2017-02-26T01:29:21.433Z,1009.84
2017-02-26T01:30:31.704Z,1009.8
2017-02-26T01:31:41.593Z,1009.81
2017-02-26T01:32:52.264Z,1009.78
2017-02-26T01:34:02.906Z,1009.76
2017-02-26T01:35:13.326Z,1009.78
2017-02-26T01:36:23.582Z,1009.81
2017-02-26T01:37:34.239Z,1009.82
2017-02-26T01:38:44.881Z,1009.78
2017-02-26T01:39:55.582Z,1009.79
2017-02-26T01:41:05.593Z,1009.72
2017-02-26T01:42:15.851Z,1009.76
2017-02-26T01:43:26.147Z,1009.72
2017-02-26T01:44:36.041Z,1009.76
2017-02-26T01:45:45.904Z,1009.63
2017-02-26T01:46:56.714Z,1009.7
2017-02-26T01:48:06.983Z,1009.72
2017-02-26T01:49:17.663Z,1009.68
2017-02-26T01:50:28.332Z,1009.72
2017-02-26T01:51:39.034Z,1009.73
2017-02-26T01:52:49.831Z,1009.72
2017-02-26T01:54:00.113Z,1009.75
2017-02-26T01:55:10.769Z,1009.72
2017-02-26T01:56:21.034Z,1009.64
2017-02-26T01:57:31.681Z,1009.68
2017-02-26T01:58:42.978Z,1009.65
2017-02-26T01:59:53.645Z,1009.63
2017-02-26T02:01:03.910Z,1009.64
2017-02-26T02:02:13.790Z,1009.63
2017-02-26T02:03:24.069Z,1009.58
2017-02-26T02:04:35.454Z,1009.58
2017-02-26T02:05:45.712Z,1009.6
2017-02-26T02:06:56.368Z,1009.55
2017-02-26T02:08:06.638Z,1009.48
2017-02-26T02:09:16.928Z,1009.44
2017-02-26T02:10:26.973Z,1009.45
2017-02-26T02:11:37.621Z,1009.4
2017-02-26T02:12:47.886Z,1009.4
2017-02-26T02:13:58.557Z,1009.39
2017-02-26T02:15:08.826Z,1009.4
2017-02-26T02:16:19.183Z,1009.37
2017-02-26T02:17:28.279Z,1009.36
2017-02-26T02:18:38.528Z,1009.32
2017-02-26T02:19:48.406Z,1009.35
2017-02-26T02:20:58.701Z,1009.32
2017-02-26T02:22:08.889Z,1009.36
2017-02-26T02:23:19.157Z,1009.37
2017-02-26T02:24:29.422Z,1009.31
2017-02-26T02:25:40.082Z,1009.32
2017-02-26T02:26:50.362Z,1009.34
2017-02-26T02:28:01.183Z,1009.28
2017-02-26T02:29:11.444Z,1009.32
2017-02-26T02:30:22.108Z,1009.3
2017-02-26T02:31:32.776Z,1009.31
2017-02-26T02:32:43.045Z,1009.28
2017-02-26T02:33:53.640Z,1009.24
2017-02-26T02:35:03.511Z,1009.2
2017-02-26T02:36:14.181Z,1009.17
2017-02-26T02:37:24.062Z,1009.18
2017-02-26T02:38:34.349Z,1009.19
2017-02-26T02:39:44.962Z,1009.14
2017-02-26T02:40:54.846Z,1009.1
2017-02-26T02:42:04.728Z,1009.13
2017-02-26T02:43:15.001Z,1009.1
2017-02-26T02:44:25.687Z,1009.11
2017-02-26T02:45:36.124Z,1009.16
2017-02-26T02:46:46.001Z,1009.13
2017-02-26T02:47:56.662Z,1009.11
2017-02-26T02:49:06.928Z,1009.19
2017-02-26T02:50:17.585Z,1009.2
2017-02-26T02:51:27.962Z,1009.2
2017-02-26T02:52:38.257Z,1009.24
2017-02-26T02:53:48.917Z,1009.16
2017-02-26T02:54:59.604Z,1009.14
2017-02-26T02:56:10.272Z,1009.06
2017-02-26T02:57:20.873Z,1009
2017-02-26T02:58:31.545Z,1008.91
2017-02-26T02:59:41.832Z,1008.85
2017-02-26T03:00:52.493Z,1008.87
2017-02-26T03:02:03.131Z,1008.83
2017-02-26T03:03:13.941Z,1008.84
2017-02-26T03:04:23.437Z,1008.84
2017-02-26T03:05:34.095Z,1008.87
2017-02-26T03:06:43.976Z,1008.85
2017-02-26T03:07:53.483Z,1008.78
2017-02-26T03:09:04.387Z,1008.72
2017-02-26T03:10:14.667Z,1008.76
2017-02-26T03:11:24.188Z,1008.76
2017-02-26T03:12:34.842Z,1008.74
2017-02-26T03:13:45.130Z,1008.75
2017-02-26T03:14:55.659Z,1008.79
2017-02-26T03:16:05.962Z,1008.87
2017-02-26T03:17:16.255Z,1008.76
2017-02-26T03:18:26.918Z,1008.72
2017-02-26T03:19:37.185Z,1008.76
2017-02-26T03:20:47.614Z,1008.8
2017-02-26T03:21:58.262Z,1008.72
2017-02-26T03:23:08.544Z,1008.67
2017-02-26T03:24:19.256Z,1008.59
2017-02-26T03:25:29.909Z,1008.53
2017-02-26T03:26:40.473Z,1008.56
2017-02-26T03:27:51.124Z,1008.55
2017-02-26T03:29:01.777Z,1008.52
2017-02-26T03:30:12.435Z,1008.55
2017-02-26T03:31:22.326Z,1008.54
2017-02-26T03:32:32.351Z,1008.6
2017-02-26T03:33:43.021Z,1008.6
2017-02-26T03:34:53.296Z,1008.63
2017-02-26T03:36:03.953Z,1008.55
2017-02-26T03:37:14.599Z,1008.59
2017-02-26T03:38:25.356Z,1008.46
2017-02-26T03:39:36.018Z,1008.35
2017-02-26T03:40:46.696Z,1008.37
2017-02-26T03:41:57.357Z,1008.44
2017-02-26T03:43:07.640Z,1008.48
2017-02-26T03:44:17.453Z,1008.51
2017-02-26T03:45:27.319Z,1008.5
2017-02-26T03:46:37.199Z,1008.57
2017-02-26T03:47:47.460Z,1008.58
2017-02-26T03:48:58.108Z,1008.61
2017-02-26T03:50:08.949Z,1008.58
2017-02-26T03:51:19.229Z,1008.57
2017-02-26T03:52:29.129Z,1008.59
2017-02-26T03:53:39.006Z,1008.51
2017-02-26T03:54:49.665Z,1008.54
2017-02-26T03:56:00.048Z,1008.49
2017-02-26T03:57:10.318Z,1008.47
2017-02-26T03:58:19.799Z,1008.52
2017-02-26T03:59:29.663Z,1008.52
2017-02-26T04:00:39.936Z,1008.56
2017-02-26T04:01:50.438Z,1008.54
2017-02-26T04:03:00.717Z,1008.53
2017-02-26T04:04:10.999Z,1008.56
2017-02-26T04:05:21.287Z,1008.52
2017-02-26T04:06:31.951Z,1008.43
2017-02-26T04:07:42.325Z,1008.41
2017-02-26T04:08:52.596Z,1008.45
2017-02-26T04:10:03.249Z,1008.39
2017-02-26T04:11:13.554Z,1008.44
2017-02-26T04:12:24.233Z,1008.43
2017-02-26T04:13:34.605Z,1008.43
2017-02-26T04:14:44.086Z,1008.36
2017-02-26T04:15:53.968Z,1008.37
2017-02-26T04:17:04.244Z,1008.34
2017-02-26T04:18:14.499Z,1008.34
2017-02-26T04:19:25.257Z,1008.33
2017-02-26T04:20:35.526Z,1008.34
2017-02-26T04:21:45.794Z,1008.39
2017-02-26T04:22:55.269Z,1008.38
2017-02-26T04:24:05.931Z,1008.38
2017-02-26T04:25:16.316Z,1008.37
2017-02-26T04:26:26.981Z,1008.36
2017-02-26T04:27:37.630Z,1008.33
2017-02-26T04:28:48.355Z,1008.34
2017-02-26T04:29:58.660Z,1008.4
2017-02-26T04:31:09.251Z,1008.37
2017-02-26T04:32:19.911Z,1008.39
2017-02-26T04:33:30.186Z,1008.35
2017-02-26T04:34:40.866Z,1008.38
2017-02-26T04:35:51.520Z,1008.4
2017-02-26T04:37:02.318Z,1008.46
2017-02-26T04:38:12.205Z,1008.48
2017-02-26T04:39:22.863Z,1008.47
2017-02-26T04:40:33.543Z,1008.46
2017-02-26T04:41:43.435Z,1008.47
2017-02-26T04:42:54.428Z,1008.41
2017-02-26T04:44:04.304Z,1008.39
2017-02-26T04:45:14.591Z,1008.39
2017-02-26T04:46:25.268Z,1008.38
2017-02-26T04:47:35.530Z,1008.41
2017-02-26T04:48:45.970Z,1008.37
2017-02-26T04:49:56.637Z,1008.33
2017-02-26T04:51:06.524Z,1008.35
2017-02-26T04:52:17.176Z,1008.31
2017-02-26T04:53:27.080Z,1008.28
2017-02-26T04:54:38.081Z,1008.17
2017-02-26T04:55:48.353Z,1008.13
2017-02-26T04:56:58.624Z,1008.16
2017-02-26T04:58:09.303Z,1008.12
2017-02-26T04:59:19.974Z,1008.07
2017-02-26T05:00:30.491Z,1008.04
2017-02-26T05:01:40.376Z,1008.05
2017-02-26T05:02:51.038Z,1008
2017-02-26T05:04:01.693Z,1007.97
2017-02-26T05:05:11.240Z,1007.95
2017-02-26T05:06:22.153Z,1007.87
2017-02-26T05:07:32.801Z,1007.87
2017-02-26T05:08:43.463Z,1007.91
2017-02-26T05:09:53.759Z,1007.94
2017-02-26T05:11:03.627Z,1007.89
2017-02-26T05:12:14.543Z,1007.84
2017-02-26T05:13:25.186Z,1007.89
2017-02-26T05:14:35.470Z,1007.85
2017-02-26T05:15:44.948Z,1007.86
2017-02-26T05:16:54.820Z,1007.84
2017-02-26T05:18:04.949Z,1007.85
2017-02-26T05:19:15.595Z,1007.83
2017-02-26T05:20:26.255Z,1007.84
2017-02-26T05:21:36.559Z,1007.89
2017-02-26T05:22:46.842Z,1007.91
2017-02-26T05:23:57.253Z,1007.87
2017-02-26T05:25:07.912Z,1007.81
2017-02-26T05:26:18.179Z,1007.84
2017-02-26T05:27:27.332Z,1007.86
2017-02-26T05:28:37.997Z,1007.88
2017-02-26T05:29:48.509Z,1007.9
2017-02-26T05:30:59.162Z,1007.84
2017-02-26T05:32:09.437Z,1007.81
2017-02-26T05:33:19.696Z,1007.84
2017-02-26T05:34:30.361Z,1007.88
2017-02-26T05:35:40.996Z,1007.92
2017-02-26T05:36:51.268Z,1007.95
2017-02-26T05:38:00.776Z,1007.91
2017-02-26T05:39:11.433Z,1007.9
2017-02-26T05:40:21.716Z,1007.85
2017-02-26T05:41:31.452Z,1007.82
2017-02-26T05:42:41.778Z,1007.81
2017-02-26T05:43:52.035Z,1007.84
2017-02-26T05:45:01.924Z,1007.88
2017-02-26T05:46:12.593Z,1007.89
2017-02-26T05:47:23.004Z,1007.92
2017-02-26T05:48:32.871Z,1007.92
2017-02-26T05:49:43.166Z,1007.86
2017-02-26T05:50:53.852Z,1007.83
2017-02-26T05:52:04.141Z,1007.79
2017-02-26T05:53:15.578Z,1007.76
2017-02-26T05:54:25.861Z,1007.73
2017-02-26T05:55:36.510Z,1007.67
2017-02-26T05:56:46.767Z,1007.71
2017-02-26T05:57:56.686Z,1007.73
2017-02-26T05:59:07.119Z,1007.7
2017-02-26T06:00:17.041Z,1007.71
2017-02-26T06:01:27.902Z,1007.77
2017-02-26T06:02:38.566Z,1007.71
2017-02-26T06:03:48.828Z,1007.68
2017-02-26T06:05:00.633Z,1007.67
2017-02-26T06:06:10.916Z,1007.7
2017-02-26T06:07:21.573Z,1007.75
2017-02-26T06:08:31.857Z,1007.78
2017-02-26T06:09:42.126Z,1007.76
2017-02-26T06:10:52.949Z,1007.8
2017-02-26T06:12:03.211Z,1007.83
2017-02-26T06:13:13.473Z,1007.77
2017-02-26T06:14:22.974Z,1007.76
2017-02-26T06:15:33.658Z,1007.74
2017-02-26T06:16:44.492Z,1007.82
2017-02-26T06:17:54.777Z,1007.74
2017-02-26T06:19:04.268Z,1007.79
2017-02-26T06:20:14.145Z,1007.78
2017-02-26T06:21:24.798Z,1007.77
2017-02-26T06:22:35.257Z,1007.76
2017-02-26T06:23:45.126Z,1007.79
2017-02-26T06:24:56.108Z,1007.79
2017-02-26T06:26:06.796Z,1007.83
2017-02-26T06:27:17.086Z,1007.87
2017-02-26T06:28:27.629Z,1007.81
2017-02-26T06:29:37.904Z,1007.76
2017-02-26T06:30:48.179Z,1007.78
2017-02-26T06:31:58.453Z,1007.78
2017-02-26T06:33:09.668Z,1007.8
2017-02-26T06:34:20.481Z,1007.83
2017-02-26T06:35:31.150Z,1007.84
2017-02-26T06:36:41.417Z,1007.82
2017-02-26T06:37:51.680Z,1007.78
2017-02-26T06:39:02.350Z,1007.77
2017-02-26T06:40:13.164Z,1007.76
2017-02-26T06:41:23.448Z,1007.81
2017-02-26T06:42:33.720Z,1007.79
2017-02-26T06:43:43.602Z,1007.8
2017-02-26T06:44:54.263Z,1007.74
2017-02-26T06:46:04.869Z,1007.78
2017-02-26T06:47:14.777Z,1007.85
2017-02-26T06:48:25.060Z,1007.83
2017-02-26T06:49:34.940Z,1007.82
2017-02-26T06:50:45.217Z,1007.8
2017-02-26T06:51:56.471Z,1007.83
2017-02-26T06:53:06.753Z,1007.78
2017-02-26T06:54:17.045Z,1007.77
2017-02-26T06:55:27.711Z,1007.8
2017-02-26T06:56:38.369Z,1007.79
2017-02-26T06:57:48.022Z,1007.8
2017-02-26T06:58:58.686Z,1007.78
2017-02-26T07:00:09.352Z,1007.74
2017-02-26T07:01:20.008Z,1007.71
2017-02-26T07:02:29.923Z,1007.75
2017-02-26T07:03:40.547Z,1007.75
2017-02-26T07:04:50.411Z,1007.71
2017-02-26T07:06:00.667Z,1007.71
2017-02-26T07:07:10.565Z,1007.75
2017-02-26T07:08:21.236Z,1007.78
2017-02-26T07:09:30.912Z,1007.76
2017-02-26T07:10:40.782Z,1007.8
2017-02-26T07:11:50.664Z,1007.82
2017-02-26T07:13:01.332Z,1007.85
2017-02-26T07:14:12.228Z,1007.89
2017-02-26T07:15:24.333Z,1007.9
2017-02-26T07:16:34.264Z,1007.96
2017-02-26T07:17:44.271Z,1008
2017-02-26T07:18:55.049Z,1008.03
2017-02-26T07:20:05.705Z,1008.05
2017-02-26T07:21:16.833Z,1007.98
2017-02-26T07:22:26.712Z,1008.04
2017-02-26T07:23:36.977Z,1007.93
2017-02-26T07:24:47.651Z,1007.94
2017-02-26T07:25:57.930Z,1007.95
2017-02-26T07:27:08.444Z,1008
2017-02-26T07:28:19.125Z,1008.05
2017-02-26T07:29:29.784Z,1008.11
2017-02-26T07:30:40.078Z,1008.19
2017-02-26T07:31:50.368Z,1008.28
2017-02-26T07:33:00.813Z,1008.23
2017-02-26T07:34:11.100Z,1008.24
2017-02-26T07:35:20.990Z,1008.25
2017-02-26T07:36:31.244Z,1008.21
2017-02-26T07:37:41.505Z,1008.24
2017-02-26T07:38:51.252Z,1008.24
2017-02-26T07:40:01.525Z,1008.21
2017-02-26T07:41:12.225Z,1008.29
2017-02-26T07:42:21.716Z,1008.29
2017-02-26T07:43:32.683Z,1008.36
2017-02-26T07:44:43.721Z,1008.42
2017-02-26T07:45:53.975Z,1008.41
2017-02-26T07:47:03.884Z,1008.46
2017-02-26T07:48:14.431Z,1008.46
2017-02-26T07:49:25.083Z,1008.49
2017-02-26T07:50:35.601Z,1008.46
2017-02-26T07:51:45.864Z,1008.49
2017-02-26T07:52:56.131Z,1008.51
2017-02-26T07:54:06.398Z,1008.55
2017-02-26T07:55:16.299Z,1008.56
2017-02-26T07:56:26.658Z,1008.53
2017-02-26T07:57:37.327Z,1008.52
2017-02-26T07:58:47.991Z,1008.51
2017-02-26T07:59:58.661Z,1008.43
2017-02-26T08:01:08.941Z,1008.39
2017-02-26T08:02:19.474Z,1008.37
2017-02-26T08:03:29.355Z,1008.33
2017-02-26T08:04:40.026Z,1008.35
2017-02-26T08:05:50.302Z,1008.33
2017-02-26T08:07:00.191Z,1008.32
2017-02-26T08:08:10.178Z,1008.35
2017-02-26T08:09:20.087Z,1008.34
2017-02-26T08:10:30.382Z,1008.33
2017-02-26T08:11:41.061Z,1008.32
2017-02-26T08:12:51.363Z,1008.27
2017-02-26T08:14:02.376Z,1008.24
2017-02-26T08:15:13.050Z,1008.27
2017-02-26T08:16:23.317Z,1008.26
2017-02-26T08:17:33.605Z,1008.26
2017-02-26T08:18:43.492Z,1008.2
2017-02-26T08:19:53.240Z,1008.14
2017-02-26T08:21:03.540Z,1008.11
2017-02-26T08:22:13.832Z,1008.1
2017-02-26T08:23:24.104Z,1008.1
2017-02-26T08:24:34.776Z,1008.12
2017-02-26T08:25:45.132Z,1008.13
2017-02-26T08:26:55.392Z,1008.19
2017-02-26T08:28:05.683Z,1008.21
2017-02-26T08:29:15.970Z,1008.29
2017-02-26T08:30:26.653Z,1008.31
2017-02-26T08:31:37.174Z,1008.35
2017-02-26T08:32:47.854Z,1008.36
2017-02-26T08:33:58.162Z,1008.38
2017-02-26T08:35:08.435Z,1008.4
2017-02-26T08:36:19.088Z,1008.44
2017-02-26T08:37:28.857Z,1008.5
2017-02-26T08:38:38.727Z,1008.48
2017-02-26T08:39:49.006Z,1008.48
2017-02-26T08:40:58.901Z,1008.49
2017-02-26T08:42:09.179Z,1008.55
2017-02-26T08:43:20.111Z,1008.48
2017-02-26T08:44:30.014Z,1008.42
2017-02-26T08:45:40.980Z,1008.39
2017-02-26T08:46:50.861Z,1008.33
2017-02-26T08:48:01.528Z,1008.33
2017-02-26T08:49:12.536Z,1008.35
2017-02-26T08:50:22.420Z,1008.36
2017-02-26T08:51:31.924Z,1008.33
2017-02-26T08:52:42.185Z,1008.35
2017-02-26T08:53:52.461Z,1008.35
2017-02-26T08:55:03.431Z,1008.34
2017-02-26T08:56:13.311Z,1008.29
2017-02-26T08:57:23.574Z,1008.29
2017-02-26T08:58:33.888Z,1008.2
2017-02-26T08:59:44.171Z,1008.09
2017-02-26T09:00:55.151Z,1008.08
2017-02-26T09:02:05.796Z,1008.16
2017-02-26T09:03:16.053Z,1008.16
2017-02-26T09:04:25.965Z,1008.2
2017-02-26T09:05:36.639Z,1008.15
2017-02-26T09:06:47.651Z,1008.11
2017-02-26T09:07:58.209Z,1008.03
2017-02-26T09:09:08.871Z,1007.98
2017-02-26T09:10:18.748Z,1007.9
2017-02-26T09:11:29.030Z,1007.92
2017-02-26T09:12:40.022Z,1007.91
2017-02-26T09:13:50.679Z,1007.91
2017-02-26T09:15:01.369Z,1007.97
2017-02-26T09:16:12.051Z,1007.97
2017-02-26T09:17:21.946Z,1008.01
2017-02-26T09:18:33.745Z,1007.98
2017-02-26T09:19:44.038Z,1007.97
2017-02-26T09:20:54.332Z,1007.96
2017-02-26T09:22:04.208Z,1007.97
2017-02-26T09:23:14.479Z,1007.98
2017-02-26T09:24:24.322Z,1007.93
2017-02-26T09:25:35.009Z,1007.83
2017-02-26T09:26:45.308Z,1007.9
2017-02-26T09:27:55.595Z,1007.87
2017-02-26T09:29:05.860Z,1007.85
2017-02-26T09:30:16.004Z,1007.87
2017-02-26T09:31:26.282Z,1007.91
2017-02-26T09:32:35.774Z,1007.95
2017-02-26T09:33:46.048Z,1007.99
2017-02-26T09:34:56.391Z,1007.97
2017-02-26T09:36:06.243Z,1007.95
2017-02-26T09:37:16.914Z,1007.98
2017-02-26T09:38:27.572Z,1008.03
2017-02-26T09:39:37.467Z,1008.09
2017-02-26T09:40:47.747Z,1008.11
2017-02-26T09:41:57.737Z,1008.08
2017-02-26T09:43:08.020Z,1008.02
2017-02-26T09:44:18.686Z,1008.1
2017-02-26T09:45:28.994Z,1008.17
2017-02-26T09:46:39.271Z,1008.14
2017-02-26T09:47:50.236Z,1008.15
2017-02-26T09:48:59.741Z,1008.18
2017-02-26T09:50:09.650Z,1008.21
2017-02-26T09:51:20.303Z,1008.18
2017-02-26T09:52:30.991Z,1008.18
2017-02-26T09:53:41.516Z,1008.18
2017-02-26T09:54:51.015Z,1008.19
2017-02-26T09:56:01.272Z,1008.15
2017-02-26T09:57:11.950Z,1008.12
2017-02-26T09:58:22.238Z,1008.08
2017-02-26T09:59:32.366Z,1008.11
2017-02-26T10:00:42.641Z,1008.15
2017-02-26T10:01:52.913Z,1008.18
2017-02-26T10:03:03.570Z,1008.11
2017-02-26T10:04:13.458Z,1008.18
2017-02-26T10:05:24.005Z,1008.18
2017-02-26T10:06:34.711Z,1008.16
2017-02-26T10:07:44.601Z,1008.14
2017-02-26T10:08:54.909Z,1008.11
2017-02-26T10:10:05.209Z,1008.09
2017-02-26T10:11:16.009Z,1008.07
2017-02-26T10:12:26.313Z,1008.06
2017-02-26T10:13:36.611Z,1008.03
2017-02-26T10:14:46.508Z,1007.99
2017-02-26T10:15:57.182Z,1007.97
2017-02-26T10:17:08.215Z,1007.96
2017-02-26T10:18:18.100Z,1007.98
2017-02-26T10:19:28.772Z,1007.97
2017-02-26T10:20:39.448Z,1008.01
2017-02-26T10:21:49.720Z,1007.98
2017-02-26T10:23:00.647Z,1008.08
2017-02-26T10:24:10.916Z,1008.04
2017-02-26T10:25:20.828Z,1008.01
2017-02-26T10:26:31.114Z,1007.95
2017-02-26T10:27:41.784Z,1007.96
2017-02-26T10:28:51.785Z,1007.98
2017-02-26T10:30:02.477Z,1008.02
2017-02-26T10:31:12.741Z,1007.97
2017-02-26T10:32:23.015Z,1007.95
2017-02-26T10:33:32.917Z,1007.95
2017-02-26T10:34:42.910Z,1007.91
2017-02-26T10:35:53.632Z,1007.88
2017-02-26T10:37:03.912Z,1007.91
2017-02-26T10:38:14.601Z,1007.93
2017-02-26T10:39:24.911Z,1007.95
2017-02-26T10:40:35.978Z,1007.93
2017-02-26T10:41:45.490Z,1007.92
2017-02-26T10:42:55.402Z,1007.92
2017-02-26T10:44:05.684Z,1007.99
2017-02-26T10:45:15.966Z,1007.95
2017-02-26T10:46:26.598Z,1008.01
2017-02-26T10:47:36.885Z,1007.97
2017-02-26T10:48:47.178Z,1007.99
2017-02-26T10:49:57.875Z,1007.94
2017-02-26T10:51:07.816Z,1007.87
2017-02-26T10:52:18.244Z,1007.84
2017-02-26T10:53:28.172Z,1007.83
2017-02-26T10:54:38.896Z,1007.76
2017-02-26T10:55:49.565Z,1007.77
2017-02-26T10:56:59.887Z,1007.79
2017-02-26T10:58:10.433Z,1007.78
2017-02-26T10:59:21.103Z,1007.77
2017-02-26T11:00:31.781Z,1007.82
2017-02-26T11:01:42.459Z,1007.84
2017-02-26T11:02:52.741Z,1007.85
2017-02-26T11:04:03.664Z,1007.82
2017-02-26T11:05:13.947Z,1007.85
2017-02-26T11:06:24.244Z,1007.83
2017-02-26T11:07:34.133Z,1007.81
2017-02-26T11:08:44.018Z,1007.76
2017-02-26T11:09:54.145Z,1007.72
2017-02-26T11:11:04.819Z,1007.71
2017-02-26T11:12:15.093Z,1007.76
2017-02-26T11:13:25.359Z,1007.75
2017-02-26T11:14:34.861Z,1007.73
2017-02-26T11:15:45.422Z,1007.71
2017-02-26T11:16:55.293Z,1007.68
2017-02-26T11:18:05.973Z,1007.73
2017-02-26T11:19:16.647Z,1007.71
2017-02-26T11:20:27.301Z,1007.64
2017-02-26T11:21:37.833Z,1007.61
2017-02-26T11:22:48.488Z,1007.62
2017-02-26T11:23:59.152Z,1007.58
2017-02-26T11:25:09.421Z,1007.48
2017-02-26T11:26:20.082Z,1007.55
2017-02-26T11:27:31.040Z,1007.51
2017-02-26T11:28:41.315Z,1007.5
2017-02-26T11:29:52.009Z,1007.49
2017-02-26T11:31:01.517Z,1007.51
2017-02-26T11:32:12.184Z,1007.53
2017-02-26T11:33:23.198Z,1007.51
2017-02-26T11:34:33.854Z,1007.49
2017-02-26T11:35:44.158Z,1007.49
2017-02-26T11:36:54.428Z,1007.49
2017-02-26T11:38:04.707Z,1007.52
2017-02-26T11:39:15.148Z,1007.5
2017-02-26T11:40:25.827Z,1007.48
2017-02-26T11:41:34.935Z,1007.54
2017-02-26T11:42:45.607Z,1007.54
2017-02-26T11:43:55.889Z,1007.5
2017-02-26T11:45:05.927Z,1007.48
2017-02-26T11:46:16.579Z,1007.46
2017-02-26T11:47:26.877Z,1007.47
2017-02-26T11:48:36.768Z,1007.42
2017-02-26T11:49:47.049Z,1007.41
2017-02-26T11:50:57.579Z,1007.4
2017-02-26T11:52:08.240Z,1007.35
2017-02-26T11:53:18.506Z,1007.35
2017-02-26T11:54:29.158Z,1007.34
2017-02-26T11:55:39.840Z,1007.31
2017-02-26T11:56:50.664Z,1007.27
2017-02-26T11:58:00.934Z,1007.25
2017-02-26T11:59:11.889Z,1007.22
2017-02-26T12:00:22.547Z,1007.21
2017-02-26T12:01:33.203Z,1007.11
2017-02-26T12:02:43.938Z,1007.16
2017-02-26T12:03:53.840Z,1007.13
2017-02-26T12:05:03.722Z,1007.13
2017-02-26T12:06:13.986Z,1007.11
2017-02-26T12:07:24.654Z,1007.11
2017-02-26T12:08:35.085Z,1007.08
2017-02-26T12:09:44.963Z,1007.09
2017-02-26T12:10:55.627Z,1007.08
2017-02-26T12:12:05.925Z,1007.07
2017-02-26T12:13:15.448Z,1007.07
2017-02-26T12:14:25.957Z,1007.09
2017-02-26T12:15:36.221Z,1007.11
2017-02-26T12:16:46.489Z,1007.11
2017-02-26T12:17:56.400Z,1007.13
2017-02-26T12:19:07.068Z,1007.15
2017-02-26T12:20:17.494Z,1007.17
2017-02-26T12:21:27.757Z,1007.14
2017-02-26T12:22:37.665Z,1007.12
2017-02-26T12:23:47.547Z,1007.16
2017-02-26T12:24:58.215Z,1007.19
2017-02-26T12:26:08.580Z,1007.19
2017-02-26T12:27:18.485Z,1007.16
2017-02-26T12:28:29.177Z,1007.15
2017-02-26T12:29:39.844Z,1007.13
2017-02-26T12:30:50.122Z,1007.14
2017-02-26T12:32:01.505Z,1007.1
2017-02-26T12:33:11.013Z,1007.09
2017-02-26T12:34:21.670Z,1007.12
2017-02-26T12:35:31.960Z,1007.14
2017-02-26T12:36:42.234Z,1007.11
2017-02-26T12:37:53.368Z,1007.11
2017-02-26T12:39:03.658Z,1007.1
2017-02-26T12:40:13.536Z,1007.14
2017-02-26T12:41:24.200Z,1007.1
2017-02-26T12:42:34.850Z,1007.1
2017-02-26T12:43:45.348Z,1007.09
2017-02-26T12:44:56.018Z,1007.06
2017-02-26T12:46:06.700Z,1007.08
2017-02-26T12:47:16.592Z,1007.05
2017-02-26T12:48:26.507Z,1007.08
2017-02-26T12:49:37.523Z,1007.09
2017-02-26T12:50:48.177Z,1007.03
2017-02-26T12:51:58.841Z,1007.05
2017-02-26T12:53:09.148Z,1006.98
2017-02-26T12:54:19.431Z,1007
2017-02-26T12:55:29.159Z,1006.99
2017-02-26T12:56:39.046Z,1006.98
2017-02-26T12:57:49.325Z,1006.96
2017-02-26T12:58:59.210Z,1006.94
2017-02-26T13:00:09.884Z,1006.98
2017-02-26T13:01:21.249Z,1006.98
2017-02-26T13:02:31.132Z,1006.94
2017-02-26T13:03:41.010Z,1006.97
2017-02-26T13:04:51.275Z,1006.97
2017-02-26T13:06:01.549Z,1006.95
2017-02-26T13:07:12.414Z,1006.98
2017-02-26T13:08:23.094Z,1006.93
2017-02-26T13:09:33.357Z,1006.95
2017-02-26T13:10:43.238Z,1006.91
2017-02-26T13:11:53.515Z,1006.9
2017-02-26T13:13:04.168Z,1006.86
2017-02-26T13:14:14.045Z,1006.88
2017-02-26T13:15:24.704Z,1006.86
2017-02-26T13:16:34.999Z,1006.83
2017-02-26T13:17:44.527Z,1006.8
2017-02-26T13:18:54.549Z,1006.78
2017-02-26T13:20:04.831Z,1006.79
2017-02-26T13:21:15.099Z,1006.76
2017-02-26T13:22:25.352Z,1006.73
2017-02-26T13:23:36.028Z,1006.73
2017-02-26T13:24:46.552Z,1006.77
2017-02-26T13:25:57.196Z,1006.78
2017-02-26T13:27:07.103Z,1006.77
2017-02-26T13:28:16.993Z,1006.75
2017-02-26T13:29:26.881Z,1006.78
2017-02-26T13:30:36.886Z,1006.75
2017-02-26T13:31:47.533Z,1006.72
2017-02-26T13:32:57.804Z,1006.78
2017-02-26T13:34:08.084Z,1006.74
2017-02-26T13:35:18.789Z,1006.73
2017-02-26T13:36:29.742Z,1006.68
2017-02-26T13:37:40.012Z,1006.66
2017-02-26T13:38:50.551Z,1006.63
2017-02-26T13:40:00.837Z,1006.62
2017-02-26T13:41:10.326Z,1006.63
2017-02-26T13:42:20.873Z,1006.62
2017-02-26T13:43:31.519Z,1006.61
2017-02-26T13:44:41.428Z,1006.57
2017-02-26T13:45:51.713Z,1006.57
2017-02-26T13:47:01.609Z,1006.52
2017-02-26T13:48:12.636Z,1006.5
2017-02-26T13:49:23.316Z,1006.48
2017-02-26T13:50:33.227Z,1006.48
2017-02-26T13:51:43.120Z,1006.46
2017-02-26T13:52:53.392Z,1006.46
2017-02-26T13:54:03.914Z,1006.47
2017-02-26T13:55:14.582Z,1006.48
2017-02-26T13:56:24.863Z,1006.46
2017-02-26T13:57:35.252Z,1006.49
2017-02-26T13:58:45.526Z,1006.47
2017-02-26T13:59:56.101Z,1006.45
2017-02-26T14:01:05.975Z,1006.44
2017-02-26T14:02:16.254Z,1006.43
2017-02-26T14:03:26.135Z,1006.41
2017-02-26T14:04:36.461Z,1006.43
2017-02-26T14:05:46.845Z,1006.41
2017-02-26T14:06:57.511Z,1006.44
2017-02-26T14:08:08.189Z,1006.43
2017-02-26T14:09:18.088Z,1006.42
2017-02-26T14:10:28.393Z,1006.41
2017-02-26T14:11:39.185Z,1006.44
2017-02-26T14:12:49.465Z,1006.44